sensor_id;sensor_type;location;lat;lon;timestamp;P1;durP1;ratioP1;P2;durP2;ratioP2
11263;SDS011;5689;48.798;9.070;2022-09-09T00:00:59;4.65;;;4.45;;
11263;SDS011;5689;48.798;9.070;2022-09-09T00:03:39;6.85;;;6.55;;
11263;SDS011;5689;48.798;9.070;2022-09-09T00:06:14;6.65;;;6.35;;
11263;SDS011;5689;48.798;9.070;2022-09-09T00:08:51;6.90;;;6.60;;
11263;SDS011;5689;48.798;9.070;2022-09-09T00:11:28;9.30;;;8.90;;
11263;SDS011;5689;48.798;9.070;2022-09-09T00:14:11;4.30;;;4.10;;
11263;SDS011;5689;48.798;9.070;2022-09-09T00:16:47;4.90;;;4.70;;
11263;SDS011;5689;48.798;9.070;2022-09-09T00:19:24;5.70;;;5.50;;
11263;SDS011;5689;48.798;9.070;2022-09-09T00:22:00;3.28;;;3.17;;
11263;SDS011;5689;48.798;9.070;2022-09-09T00:24:37;5.10;;;4.90;;
11263;SDS011;5689;48.798;9.070;2022-09-09T00:27:12;1.40;;;1.40;;
11263;SDS011;5689;48.798;9.070;2022-09-09T00:29:45;3.45;;;3.35;;
11263;SDS011;5689;48.798;9.070;2022-09-09T00:32:20;3.67;;;3.58;;
11263;SDS011;5689;48.798;9.070;2022-09-09T00:34:51;1.30;;;1.30;;
11263;SDS011;5689;48.798;9.070;2022-09-09T00:37:24;2.75;;;2.65;;
11263;SDS011;5689;48.798;9.070;2022-09-09T00:39:55;1.30;;;1.30;;
11263;SDS011;5689;48.798;9.070;2022-09-09T00:42:30;1.50;;;1.50;;
11263;SDS011;5689;48.798;9.070;2022-09-09T00:45:09;1.70;;;1.70;;
11263;SDS011;5689;48.798;9.070;2022-09-09T00:47:46;1.05;;;1.05;;
11263;SDS011;5689;48.798;9.070;2022-09-09T00:53:15;0.88;;;0.88;;
11263;SDS011;5689;48.798;9.070;2022-09-09T00:55:52;0.88;;;0.88;;
11263;SDS011;5689;48.798;9.070;2022-09-09T00:58:25;0.90;;;0.90;;
11263;SDS011;5689;48.798;9.070;2022-09-09T01:00:56;0.65;;;0.65;;
11263;SDS011;5689;48.798;9.070;2022-09-09T01:03:32;1.05;;;1.05;;
11263;SDS011;5689;48.798;9.070;2022-09-09T01:06:11;1.20;;;1.20;;
11263;SDS011;5689;48.798;9.070;2022-09-09T01:08:46;1.30;;;1.30;;
11263;SDS011;5689;48.798;9.070;2022-09-09T01:11:31;2.47;;;2.38;;
11263;SDS011;5689;48.798;9.070;2022-09-09T01:14:10;1.70;;;1.70;;
11263;SDS011;5689;48.798;9.070;2022-09-09T01:16:44;1.17;;;1.17;;
11263;SDS011;5689;48.798;9.070;2022-09-09T01:19:17;0.40;;;0.40;;
11263;SDS011;5689;48.798;9.070;2022-09-09T01:21:56;0.35;;;0.35;;
11263;SDS011;5689;48.798;9.070;2022-09-09T01:24:35;0.20;;;0.20;;
11263;SDS011;5689;48.798;9.070;2022-09-09T01:27:18;0.40;;;0.40;;
11263;SDS011;5689;48.798;9.070;2022-09-09T01:29:47;0.30;;;0.30;;
11263;SDS011;5689;48.798;9.070;2022-09-09T01:35:06;0.40;;;0.40;;
11263;SDS011;5689;48.798;9.070;2022-09-09T01:37:37;0.25;;;0.25;;
11263;SDS011;5689;48.798;9.070;2022-09-09T01:40:06;0.40;;;0.40;;
11263;SDS011;5689;48.798;9.070;2022-09-09T01:42:38;0.90;;;0.90;;
11263;SDS011;5689;48.798;9.070;2022-09-09T01:45:06;2.20;;;2.10;;
11263;SDS011;5689;48.798;9.070;2022-09-09T01:47:35;3.25;;;3.15;;
11263;SDS011;5689;48.798;9.070;2022-09-09T01:50:12;5.20;;;5.00;;
11263;SDS011;5689;48.798;9.070;2022-09-09T01:52:42;6.88;;;6.57;;
11263;SDS011;5689;48.798;9.070;2022-09-09T01:55:13;7.47;;;7.18;;
11263;SDS011;5689;48.798;9.070;2022-09-09T01:57:45;8.10;;;7.78;;
11263;SDS011;5689;48.798;9.070;2022-09-09T02:00:18;9.88;;;9.48;;
11263;SDS011;5689;48.798;9.070;2022-09-09T02:02:55;9.77;;;9.38;;
11263;SDS011;5689;48.798;9.070;2022-09-09T02:05:37;10.65;;;10.23;;
11263;SDS011;5689;48.798;9.070;2022-09-09T02:08:29;9.15;;;8.77;;
11263;SDS011;5689;48.798;9.070;2022-09-09T02:11:09;12.40;;;11.88;;
11263;SDS011;5689;48.798;9.070;2022-09-09T02:13:47;13.63;;;13.05;;
11263;SDS011;5689;48.798;9.070;2022-09-09T02:16:21;12.90;;;12.35;;
11263;SDS011;5689;48.798;9.070;2022-09-09T02:18:54;10.45;;;10.02;;
11263;SDS011;5689;48.798;9.070;2022-09-09T02:21:39;10.70;;;10.27;;
11263;SDS011;5689;48.798;9.070;2022-09-09T02:24:11;8.45;;;8.13;;
11263;SDS011;5689;48.798;9.070;2022-09-09T02:26:50;8.15;;;7.82;;
11263;SDS011;5689;48.798;9.070;2022-09-09T02:29:23;7.47;;;7.18;;
11263;SDS011;5689;48.798;9.070;2022-09-09T02:31:55;5.97;;;5.78;;
11263;SDS011;5689;48.798;9.070;2022-09-09T02:34:33;6.03;;;5.82;;
11263;SDS011;5689;48.798;9.070;2022-09-09T02:37:03;6.93;;;6.63;;
11263;SDS011;5689;48.798;9.070;2022-09-09T02:39:34;9.57;;;9.18;;
11263;SDS011;5689;48.798;9.070;2022-09-09T02:42:04;12.48;;;11.98;;
11263;SDS011;5689;48.798;9.070;2022-09-09T02:44:34;12.25;;;11.75;;
11263;SDS011;5689;48.798;9.070;2022-09-09T02:47:15;10.63;;;10.18;;
11263;SDS011;5689;48.798;9.070;2022-09-09T02:49:59;10.98;;;10.52;;
11263;SDS011;5689;48.798;9.070;2022-09-09T02:52:43;11.93;;;11.43;;
11263;SDS011;5689;48.798;9.070;2022-09-09T02:55:29;9.00;;;8.63;;
11263;SDS011;5689;48.798;9.070;2022-09-09T02:58:07;7.15;;;6.85;;
11263;SDS011;5689;48.798;9.070;2022-09-09T03:00:40;6.97;;;6.68;;
11263;SDS011;5689;48.798;9.070;2022-09-09T03:03:08;6.70;;;6.40;;
11263;SDS011;5689;48.798;9.070;2022-09-09T03:05:38;5.43;;;5.22;;
11263;SDS011;5689;48.798;9.070;2022-09-09T03:08:07;5.22;;;5.03;;
11263;SDS011;5689;48.798;9.070;2022-09-09T03:10:35;4.28;;;4.10;;
11263;SDS011;5689;48.798;9.070;2022-09-09T03:13:04;4.60;;;4.40;;
11263;SDS011;5689;48.798;9.070;2022-09-09T03:15:36;5.68;;;5.47;;
11263;SDS011;5689;48.798;9.070;2022-09-09T03:18:09;3.15;;;3.05;;
11263;SDS011;5689;48.798;9.070;2022-09-09T03:20:37;3.35;;;3.25;;
11263;SDS011;5689;48.798;9.070;2022-09-09T03:23:05;4.15;;;4.00;;
11263;SDS011;5689;48.798;9.070;2022-09-09T03:25:34;4.70;;;4.50;;
11263;SDS011;5689;48.798;9.070;2022-09-09T03:28:03;7.72;;;7.43;;
11263;SDS011;5689;48.798;9.070;2022-09-09T03:30:31;5.78;;;5.57;;
11263;SDS011;5689;48.798;9.070;2022-09-09T03:32:59;6.50;;;6.25;;
11263;SDS011;5689;48.798;9.070;2022-09-09T03:35:32;4.57;;;4.38;;
11263;SDS011;5689;48.798;9.070;2022-09-09T03:38:01;7.60;;;7.30;;
11263;SDS011;5689;48.798;9.070;2022-09-09T03:40:31;5.93;;;5.72;;
11263;SDS011;5689;48.798;9.070;2022-09-09T03:42:59;7.47;;;7.18;;
11263;SDS011;5689;48.798;9.070;2022-09-09T03:45:27;6.13;;;5.93;;
11263;SDS011;5689;48.798;9.070;2022-09-09T03:47:56;7.03;;;6.72;;
11263;SDS011;5689;48.798;9.070;2022-09-09T03:50:24;7.50;;;7.20;;
11263;SDS011;5689;48.798;9.070;2022-09-09T03:52:53;9.88;;;9.48;;
11263;SDS011;5689;48.798;9.070;2022-09-09T03:55:21;14.52;;;13.90;;
11263;SDS011;5689;48.798;9.070;2022-09-09T03:57:49;12.25;;;11.73;;
11263;SDS011;5689;48.798;9.070;2022-09-09T04:00:18;10.90;;;10.45;;
11263;SDS011;5689;48.798;9.070;2022-09-09T04:02:50;10.60;;;10.15;;
11263;SDS011;5689;48.798;9.070;2022-09-09T04:05:22;12.15;;;11.63;;
11263;SDS011;5689;48.798;9.070;2022-09-09T04:07:50;10.98;;;10.52;;
11263;SDS011;5689;48.798;9.070;2022-09-09T04:10:20;13.45;;;12.88;;
11263;SDS011;5689;48.798;9.070;2022-09-09T04:12:48;11.68;;;11.18;;
11263;SDS011;5689;48.798;9.070;2022-09-09T04:15:16;11.63;;;11.13;;
11263;SDS011;5689;48.798;9.070;2022-09-09T04:17:44;12.00;;;11.50;;
11263;SDS011;5689;48.798;9.070;2022-09-09T04:20:12;11.50;;;11.02;;
11263;SDS011;5689;48.798;9.070;2022-09-09T04:22:40;11.27;;;10.82;;
11263;SDS011;5689;48.798;9.070;2022-09-09T04:25:08;9.80;;;9.40;;
11263;SDS011;5689;48.798;9.070;2022-09-09T04:27:38;11.35;;;10.88;;
11263;SDS011;5689;48.798;9.070;2022-09-09T04:30:07;11.43;;;10.95;;
11263;SDS011;5689;48.798;9.070;2022-09-09T04:32:36;12.90;;;12.35;;
11263;SDS011;5689;48.798;9.070;2022-09-09T04:35:04;11.52;;;11.05;;
11263;SDS011;5689;48.798;9.070;2022-09-09T04:37:33;14.00;;;13.40;;
11263;SDS011;5689;48.798;9.070;2022-09-09T04:40:01;10.18;;;9.75;;
11263;SDS011;5689;48.798;9.070;2022-09-09T04:42:30;13.85;;;13.27;;
11263;SDS011;5689;48.798;9.070;2022-09-09T04:45:04;11.85;;;11.35;;
11263;SDS011;5689;48.798;9.070;2022-09-09T04:47:32;13.30;;;12.75;;
11263;SDS011;5689;48.798;9.070;2022-09-09T04:50:02;12.60;;;12.07;;
11263;SDS011;5689;48.798;9.070;2022-09-09T04:52:33;11.77;;;11.27;;
11263;SDS011;5689;48.798;9.070;2022-09-09T04:55:01;12.25;;;11.73;;
11263;SDS011;5689;48.798;9.070;2022-09-09T04:57:29;10.30;;;9.88;;
11263;SDS011;5689;48.798;9.070;2022-09-09T04:59:58;6.32;;;6.10;;
11263;SDS011;5689;48.798;9.070;2022-09-09T05:02:32;8.30;;;7.97;;
11263;SDS011;5689;48.798;9.070;2022-09-09T05:05:04;11.68;;;11.20;;
11263;SDS011;5689;48.798;9.070;2022-09-09T05:07:32;11.65;;;11.18;;
11263;SDS011;5689;48.798;9.070;2022-09-09T05:10:01;12.45;;;11.93;;
11263;SDS011;5689;48.798;9.070;2022-09-09T05:12:31;9.35;;;8.98;;
11263;SDS011;5689;48.798;9.070;2022-09-09T05:14:59;11.05;;;10.60;;
11263;SDS011;5689;48.798;9.070;2022-09-09T05:17:27;13.43;;;12.88;;
11263;SDS011;5689;48.798;9.070;2022-09-09T05:19:56;10.98;;;10.52;;
11263;SDS011;5689;48.798;9.070;2022-09-09T05:22:25;13.38;;;12.82;;
11263;SDS011;5689;48.798;9.070;2022-09-09T05:24:53;8.80;;;8.45;;
11263;SDS011;5689;48.798;9.070;2022-09-09T05:27:21;13.13;;;12.57;;
11263;SDS011;5689;48.798;9.070;2022-09-09T05:29:49;13.40;;;12.85;;
11263;SDS011;5689;48.798;9.070;2022-09-09T05:32:17;8.07;;;7.75;;
11263;SDS011;5689;48.798;9.070;2022-09-09T05:34:47;2.75;;;2.65;;
11263;SDS011;5689;48.798;9.070;2022-09-09T05:37:17;3.95;;;3.75;;
11263;SDS011;5689;48.798;9.070;2022-09-09T05:39:45;6.28;;;6.00;;
11263;SDS011;5689;48.798;9.070;2022-09-09T05:42:14;7.60;;;7.30;;
11263;SDS011;5689;48.798;9.070;2022-09-09T05:44:43;9.82;;;9.43;;
11263;SDS011;5689;48.798;9.070;2022-09-09T05:47:11;9.35;;;8.95;;
11263;SDS011;5689;48.798;9.070;2022-09-09T05:49:40;11.02;;;10.55;;
11263;SDS011;5689;48.798;9.070;2022-09-09T05:52:09;7.97;;;7.68;;
11263;SDS011;5689;48.798;9.070;2022-09-09T05:54:39;6.93;;;6.63;;
11263;SDS011;5689;48.798;9.070;2022-09-09T05:57:08;7.93;;;7.63;;
11263;SDS011;5689;48.798;9.070;2022-09-09T05:59:36;5.25;;;5.05;;
11263;SDS011;5689;48.798;9.070;2022-09-09T06:02:04;7.50;;;7.20;;
11263;SDS011;5689;48.798;9.070;2022-09-09T06:04:35;6.13;;;5.88;;
11263;SDS011;5689;48.798;9.070;2022-09-09T06:07:04;8.20;;;7.88;;
11263;SDS011;5689;48.798;9.070;2022-09-09T06:09:32;6.90;;;6.60;;
11263;SDS011;5689;48.798;9.070;2022-09-09T06:12:02;7.90;;;7.60;;
11263;SDS011;5689;48.798;9.070;2022-09-09T06:14:33;7.78;;;7.47;;
11263;SDS011;5689;48.798;9.070;2022-09-09T06:17:01;8.38;;;8.05;;
11263;SDS011;5689;48.798;9.070;2022-09-09T06:19:29;8.45;;;8.13;;
11263;SDS011;5689;48.798;9.070;2022-09-09T06:21:59;6.68;;;6.38;;
11263;SDS011;5689;48.798;9.070;2022-09-09T06:24:29;7.95;;;7.65;;
11263;SDS011;5689;48.798;9.070;2022-09-09T06:27:01;5.15;;;4.95;;
11263;SDS011;5689;48.798;9.070;2022-09-09T06:29:33;6.18;;;5.95;;
11263;SDS011;5689;48.798;9.070;2022-09-09T06:32:01;6.40;;;6.15;;
11263;SDS011;5689;48.798;9.070;2022-09-09T06:34:30;7.53;;;7.22;;
11263;SDS011;5689;48.798;9.070;2022-09-09T06:36:59;7.43;;;7.13;;
11263;SDS011;5689;48.798;9.070;2022-09-09T06:39:42;9.00;;;8.63;;
11263;SDS011;5689;48.798;9.070;2022-09-09T06:42:11;7.38;;;7.07;;
11263;SDS011;5689;48.798;9.070;2022-09-09T06:44:42;7.55;;;7.25;;
11263;SDS011;5689;48.798;9.070;2022-09-09T06:47:16;7.88;;;7.57;;
11263;SDS011;5689;48.798;9.070;2022-09-09T06:49:45;6.82;;;6.53;;
11263;SDS011;5689;48.798;9.070;2022-09-09T06:52:13;6.97;;;6.68;;
11263;SDS011;5689;48.798;9.070;2022-09-09T06:54:45;5.45;;;5.25;;
11263;SDS011;5689;48.798;9.070;2022-09-09T06:57:16;5.93;;;5.70;;
11263;SDS011;5689;48.798;9.070;2022-09-09T07:00:00;5.03;;;4.82;;
11263;SDS011;5689;48.798;9.070;2022-09-09T07:02:28;4.65;;;4.45;;
11263;SDS011;5689;48.798;9.070;2022-09-09T07:05:06;3.55;;;3.45;;
11263;SDS011;5689;48.798;9.070;2022-09-09T07:07:35;2.30;;;2.20;;
11263;SDS011;5689;48.798;9.070;2022-09-09T07:10:04;2.35;;;2.25;;
11263;SDS011;5689;48.798;9.070;2022-09-09T07:12:36;2.05;;;1.95;;
11263;SDS011;5689;48.798;9.070;2022-09-09T07:15:08;2.10;;;2.00;;
11263;SDS011;5689;48.798;9.070;2022-09-09T07:17:40;0.80;;;0.80;;
11263;SDS011;5689;48.798;9.070;2022-09-09T07:20:08;0.10;;;0.10;;
11263;SDS011;5689;48.798;9.070;2022-09-09T07:22:37;0.00;;;0.00;;
11263;SDS011;5689;48.798;9.070;2022-09-09T07:25:07;0.00;;;0.00;;
11263;SDS011;5689;48.798;9.070;2022-09-09T07:27:37;0.00;;;0.00;;
11263;SDS011;5689;48.798;9.070;2022-09-09T07:30:05;0.10;;;0.10;;
11263;SDS011;5689;48.798;9.070;2022-09-09T07:32:35;0.10;;;0.10;;
11263;SDS011;5689;48.798;9.070;2022-09-09T07:35:03;0.00;;;0.00;;
11263;SDS011;5689;48.798;9.070;2022-09-09T07:37:31;0.10;;;0.10;;
11263;SDS011;5689;48.798;9.070;2022-09-09T07:39:59;0.00;;;0.00;;
11263;SDS011;5689;48.798;9.070;2022-09-09T07:42:29;0.00;;;0.00;;
11263;SDS011;5689;48.798;9.070;2022-09-09T07:44:58;0.10;;;0.10;;
11263;SDS011;5689;48.798;9.070;2022-09-09T07:47:26;0.10;;;0.10;;
11263;SDS011;5689;48.798;9.070;2022-09-09T07:49:54;0.00;;;0.00;;
11263;SDS011;5689;48.798;9.070;2022-09-09T07:52:27;0.00;;;0.00;;
11263;SDS011;5689;48.798;9.070;2022-09-09T07:54:59;0.10;;;0.10;;
11263;SDS011;5689;48.798;9.070;2022-09-09T07:57:28;0.10;;;0.10;;
11263;SDS011;5689;48.798;9.070;2022-09-09T07:59:57;0.10;;;0.10;;
11263;SDS011;5689;48.798;9.070;2022-09-09T08:02:27;0.00;;;0.00;;
11263;SDS011;5689;48.798;9.070;2022-09-09T08:04:55;0.00;;;0.00;;
11263;SDS011;5689;48.798;9.070;2022-09-09T08:07:24;0.00;;;0.00;;
11263;SDS011;5689;48.798;9.070;2022-09-09T08:09:53;0.10;;;0.10;;
11263;SDS011;5689;48.798;9.070;2022-09-09T08:12:30;0.00;;;0.00;;
11263;SDS011;5689;48.798;9.070;2022-09-09T08:15:01;0.00;;;0.00;;
11263;SDS011;5689;48.798;9.070;2022-09-09T08:17:31;0.00;;;0.00;;
11263;SDS011;5689;48.798;9.070;2022-09-09T08:20:04;0.00;;;0.00;;
11263;SDS011;5689;48.798;9.070;2022-09-09T08:22:33;0.00;;;0.00;;
11263;SDS011;5689;48.798;9.070;2022-09-09T08:25:04;0.00;;;0.00;;
11263;SDS011;5689;48.798;9.070;2022-09-09T08:27:36;0.00;;;0.00;;
11263;SDS011;5689;48.798;9.070;2022-09-09T08:30:07;0.00;;;0.00;;
11263;SDS011;5689;48.798;9.070;2022-09-09T08:32:36;0.10;;;0.10;;
11263;SDS011;5689;48.798;9.070;2022-09-09T08:35:04;0.10;;;0.10;;
11263;SDS011;5689;48.798;9.070;2022-09-09T08:37:33;0.00;;;0.00;;
11263;SDS011;5689;48.798;9.070;2022-09-09T08:40:02;0.03;;;0.03;;
11263;SDS011;5689;48.798;9.070;2022-09-09T08:42:35;0.00;;;0.00;;
11263;SDS011;5689;48.798;9.070;2022-09-09T08:45:18;0.00;;;0.00;;
11263;SDS011;5689;48.798;9.070;2022-09-09T08:47:54;0.00;;;0.00;;
11263;SDS011;5689;48.798;9.070;2022-09-09T08:50:32;0.00;;;0.00;;
11263;SDS011;5689;48.798;9.070;2022-09-09T08:53:09;0.10;;;0.10;;
11263;SDS011;5689;48.798;9.070;2022-09-09T08:55:41;0.00;;;0.00;;
11263;SDS011;5689;48.798;9.070;2022-09-09T08:58:15;0.00;;;0.00;;
11263;SDS011;5689;48.798;9.070;2022-09-09T09:01:02;0.00;;;0.00;;
11263;SDS011;5689;48.798;9.070;2022-09-09T09:03:48;0.00;;;0.00;;
11263;SDS011;5689;48.798;9.070;2022-09-09T09:06:26;0.00;;;0.00;;
11263;SDS011;5689;48.798;9.070;2022-09-09T09:09:08;0.00;;;0.00;;
11263;SDS011;5689;48.798;9.070;2022-09-09T09:11:43;0.00;;;0.00;;
11263;SDS011;5689;48.798;9.070;2022-09-09T09:14:16;0.00;;;0.00;;
11263;SDS011;5689;48.798;9.070;2022-09-09T09:16:52;0.10;;;0.10;;
11263;SDS011;5689;48.798;9.070;2022-09-09T09:19:23;0.10;;;0.10;;
11263;SDS011;5689;48.798;9.070;2022-09-09T09:21:57;0.10;;;0.10;;
11263;SDS011;5689;48.798;9.070;2022-09-09T09:24:34;0.00;;;0.00;;
11263;SDS011;5689;48.798;9.070;2022-09-09T09:27:13;0.00;;;0.00;;
11263;SDS011;5689;48.798;9.070;2022-09-09T09:29:48;0.10;;;0.10;;
11263;SDS011;5689;48.798;9.070;2022-09-09T09:32:37;0.10;;;0.10;;
11263;SDS011;5689;48.798;9.070;2022-09-09T09:35:10;0.10;;;0.10;;
11263;SDS011;5689;48.798;9.070;2022-09-09T09:37:41;0.10;;;0.10;;
11263;SDS011;5689;48.798;9.070;2022-09-09T09:40:32;0.00;;;0.00;;
11263;SDS011;5689;48.798;9.070;2022-09-09T09:43:01;0.00;;;0.00;;
11263;SDS011;5689;48.798;9.070;2022-09-09T09:45:35;0.10;;;0.10;;
11263;SDS011;5689;48.798;9.070;2022-09-09T09:48:14;0.00;;;0.00;;
11263;SDS011;5689;48.798;9.070;2022-09-09T09:50:46;0.00;;;0.00;;
11263;SDS011;5689;48.798;9.070;2022-09-09T09:53:18;0.00;;;0.00;;
11263;SDS011;5689;48.798;9.070;2022-09-09T09:55:52;0.10;;;0.10;;
11263;SDS011;5689;48.798;9.070;2022-09-09T09:58:24;0.00;;;0.00;;
11263;SDS011;5689;48.798;9.070;2022-09-09T10:00:54;0.00;;;0.00;;
11263;SDS011;5689;48.798;9.070;2022-09-09T10:03:28;0.00;;;0.00;;
11263;SDS011;5689;48.798;9.070;2022-09-09T10:05:57;0.00;;;0.00;;
11263;SDS011;5689;48.798;9.070;2022-09-09T10:08:27;0.00;;;0.00;;
11263;SDS011;5689;48.798;9.070;2022-09-09T10:11:02;0.00;;;0.00;;
11263;SDS011;5689;48.798;9.070;2022-09-09T10:13:46;0.10;;;0.10;;
11263;SDS011;5689;48.798;9.070;2022-09-09T10:16:24;0.10;;;0.10;;
11263;SDS011;5689;48.798;9.070;2022-09-09T10:19:03;0.00;;;0.00;;
11263;SDS011;5689;48.798;9.070;2022-09-09T10:21:49;0.00;;;0.00;;
11263;SDS011;5689;48.798;9.070;2022-09-09T10:24:30;0.10;;;0.10;;
11263;SDS011;5689;48.798;9.070;2022-09-09T10:27:15;0.08;;;0.08;;
11263;SDS011;5689;48.798;9.070;2022-09-09T10:30:02;0.10;;;0.10;;
11263;SDS011;5689;48.798;9.070;2022-09-09T10:32:38;0.00;;;0.00;;
11263;SDS011;5689;48.798;9.070;2022-09-09T10:35:11;0.00;;;0.00;;
11263;SDS011;5689;48.798;9.070;2022-09-09T10:37:47;0.00;;;0.00;;
11263;SDS011;5689;48.798;9.070;2022-09-09T10:41:00;0.00;;;0.00;;
11263;SDS011;5689;48.798;9.070;2022-09-09T10:44:00;0.10;;;0.10;;
11263;SDS011;5689;48.798;9.070;2022-09-09T10:46:57;0.00;;;0.00;;
11263;SDS011;5689;48.798;9.070;2022-09-09T10:49:52;0.00;;;0.00;;
11263;SDS011;5689;48.798;9.070;2022-09-09T10:52:41;0.00;;;0.00;;
11263;SDS011;5689;48.798;9.070;2022-09-09T10:55:19;0.00;;;0.00;;
11263;SDS011;5689;48.798;9.070;2022-09-09T10:57:55;0.00;;;0.00;;
11263;SDS011;5689;48.798;9.070;2022-09-09T11:00:27;0.00;;;0.00;;
11263;SDS011;5689;48.798;9.070;2022-09-09T11:03:05;0.10;;;0.10;;
11263;SDS011;5689;48.798;9.070;2022-09-09T11:05:36;0.50;;;0.50;;
11263;SDS011;5689;48.798;9.070;2022-09-09T11:08:11;0.50;;;0.50;;
11263;SDS011;5689;48.798;9.070;2022-09-09T11:10:44;0.95;;;0.95;;
11263;SDS011;5689;48.798;9.070;2022-09-09T11:13:19;2.17;;;2.10;;
11263;SDS011;5689;48.798;9.070;2022-09-09T11:15:53;0.10;;;0.10;;
11263;SDS011;5689;48.798;9.070;2022-09-09T11:18:27;0.52;;;0.52;;
11263;SDS011;5689;48.798;9.070;2022-09-09T11:20:58;0.10;;;0.10;;
11263;SDS011;5689;48.798;9.070;2022-09-09T11:23:31;0.10;;;0.10;;
11263;SDS011;5689;48.798;9.070;2022-09-09T11:26:07;0.10;;;0.10;;
11263;SDS011;5689;48.798;9.070;2022-09-09T11:28:44;0.20;;;0.20;;
11263;SDS011;5689;48.798;9.070;2022-09-09T11:31:34;0.50;;;0.50;;
11263;SDS011;5689;48.798;9.070;2022-09-09T11:34:20;0.30;;;0.30;;
11263;SDS011;5689;48.798;9.070;2022-09-09T11:37:03;0.70;;;0.70;;
11263;SDS011;5689;48.798;9.070;2022-09-09T11:39:49;3.30;;;3.20;;
11263;SDS011;5689;48.798;9.070;2022-09-09T11:42:28;0.10;;;0.10;;
11263;SDS011;5689;48.798;9.070;2022-09-09T11:44:56;1.95;;;1.88;;
11263;SDS011;5689;48.798;9.070;2022-09-09T11:47:26;0.20;;;0.20;;
11263;SDS011;5689;48.798;9.070;2022-09-09T11:50:06;2.17;;;2.08;;
11263;SDS011;5689;48.798;9.070;2022-09-09T11:53:03;0.10;;;0.10;;
11263;SDS011;5689;48.798;9.070;2022-09-09T11:55:44;0.10;;;0.10;;
11263;SDS011;5689;48.798;9.070;2022-09-09T11:58:15;0.20;;;0.20;;
11263;SDS011;5689;48.798;9.070;2022-09-09T12:00:46;0.20;;;0.20;;
11263;SDS011;5689;48.798;9.070;2022-09-09T12:03:33;0.10;;;0.10;;
11263;SDS011;5689;48.798;9.070;2022-09-09T12:06:10;0.10;;;0.10;;
11263;SDS011;5689;48.798;9.070;2022-09-09T12:08:42;0.20;;;0.20;;
11263;SDS011;5689;48.798;9.070;2022-09-09T12:11:22;0.10;;;0.10;;
11263;SDS011;5689;48.798;9.070;2022-09-09T12:13:53;0.10;;;0.10;;
11263;SDS011;5689;48.798;9.070;2022-09-09T12:16:29;0.10;;;0.10;;
11263;SDS011;5689;48.798;9.070;2022-09-09T12:19:04;0.00;;;0.00;;
11263;SDS011;5689;48.798;9.070;2022-09-09T12:21:42;0.00;;;0.00;;
11263;SDS011;5689;48.798;9.070;2022-09-09T12:24:16;0.00;;;0.00;;
11263;SDS011;5689;48.798;9.070;2022-09-09T12:26:52;0.10;;;0.10;;
11263;SDS011;5689;48.798;9.070;2022-09-09T12:29:27;0.05;;;0.05;;
11263;SDS011;5689;48.798;9.070;2022-09-09T12:32:02;0.10;;;0.10;;
11263;SDS011;5689;48.798;9.070;2022-09-09T12:34:36;0.10;;;0.10;;
11263;SDS011;5689;48.798;9.070;2022-09-09T12:37:12;0.10;;;0.10;;
11263;SDS011;5689;48.798;9.070;2022-09-09T12:39:45;0.10;;;0.10;;
11263;SDS011;5689;48.798;9.070;2022-09-09T12:42:19;0.00;;;0.00;;
11263;SDS011;5689;48.798;9.070;2022-09-09T12:44:55;0.10;;;0.10;;
11263;SDS011;5689;48.798;9.070;2022-09-09T12:47:26;0.10;;;0.10;;
11263;SDS011;5689;48.798;9.070;2022-09-09T12:49:59;0.00;;;0.00;;
11263;SDS011;5689;48.798;9.070;2022-09-09T12:52:29;0.00;;;0.00;;
11263;SDS011;5689;48.798;9.070;2022-09-09T12:55:00;0.00;;;0.00;;
11263;SDS011;5689;48.798;9.070;2022-09-09T12:57:33;0.00;;;0.00;;
11263;SDS011;5689;48.798;9.070;2022-09-09T13:00:04;0.00;;;0.00;;
11263;SDS011;5689;48.798;9.070;2022-09-09T13:02:44;0.00;;;0.00;;
11263;SDS011;5689;48.798;9.070;2022-09-09T13:05:15;0.00;;;0.00;;
11263;SDS011;5689;48.798;9.070;2022-09-09T13:07:44;0.00;;;0.00;;
11263;SDS011;5689;48.798;9.070;2022-09-09T13:10:14;0.00;;;0.00;;
11263;SDS011;5689;48.798;9.070;2022-09-09T13:12:52;0.10;;;0.10;;
11263;SDS011;5689;48.798;9.070;2022-09-09T13:15:21;0.10;;;0.10;;
11263;SDS011;5689;48.798;9.070;2022-09-09T13:17:53;0.00;;;0.00;;
11263;SDS011;5689;48.798;9.070;2022-09-09T13:20:23;0.00;;;0.00;;
11263;SDS011;5689;48.798;9.070;2022-09-09T13:22:52;0.10;;;0.10;;
11263;SDS011;5689;48.798;9.070;2022-09-09T13:25:23;0.00;;;0.00;;
11263;SDS011;5689;48.798;9.070;2022-09-09T13:27:55;0.00;;;0.00;;
11263;SDS011;5689;48.798;9.070;2022-09-09T13:30:29;0.10;;;0.10;;
11263;SDS011;5689;48.798;9.070;2022-09-09T13:33:03;0.00;;;0.00;;
11263;SDS011;5689;48.798;9.070;2022-09-09T13:35:34;0.00;;;0.00;;
11263;SDS011;5689;48.798;9.070;2022-09-09T13:38:13;0.00;;;0.00;;
11263;SDS011;5689;48.798;9.070;2022-09-09T13:40:51;0.00;;;0.00;;
11263;SDS011;5689;48.798;9.070;2022-09-09T13:43:23;0.00;;;0.00;;
11263;SDS011;5689;48.798;9.070;2022-09-09T13:45:54;0.00;;;0.00;;
11263;SDS011;5689;48.798;9.070;2022-09-09T13:48:24;0.00;;;0.00;;
11263;SDS011;5689;48.798;9.070;2022-09-09T13:50:53;0.10;;;0.10;;
11263;SDS011;5689;48.798;9.070;2022-09-09T13:53:26;0.00;;;0.00;;
11263;SDS011;5689;48.798;9.070;2022-09-09T13:55:55;0.03;;;0.03;;
11263;SDS011;5689;48.798;9.070;2022-09-09T13:58:26;0.00;;;0.00;;
11263;SDS011;5689;48.798;9.070;2022-09-09T14:00:55;0.00;;;0.00;;
11263;SDS011;5689;48.798;9.070;2022-09-09T14:03:23;0.10;;;0.10;;
11263;SDS011;5689;48.798;9.070;2022-09-09T14:05:52;0.00;;;0.00;;
11263;SDS011;5689;48.798;9.070;2022-09-09T14:08:25;0.00;;;0.00;;
11263;SDS011;5689;48.798;9.070;2022-09-09T14:10:55;0.00;;;0.00;;
11263;SDS011;5689;48.798;9.070;2022-09-09T14:13:27;0.10;;;0.10;;
11263;SDS011;5689;48.798;9.070;2022-09-09T14:15:55;0.00;;;0.00;;
11263;SDS011;5689;48.798;9.070;2022-09-09T14:18:23;0.00;;;0.00;;
11263;SDS011;5689;48.798;9.070;2022-09-09T14:20:51;0.10;;;0.10;;
11263;SDS011;5689;48.798;9.070;2022-09-09T14:23:20;0.00;;;0.00;;
11263;SDS011;5689;48.798;9.070;2022-09-09T14:25:48;0.00;;;0.00;;
11263;SDS011;5689;48.798;9.070;2022-09-09T14:28:17;0.00;;;0.00;;
11263;SDS011;5689;48.798;9.070;2022-09-09T14:30:47;0.00;;;0.00;;
11263;SDS011;5689;48.798;9.070;2022-09-09T14:33:15;0.00;;;0.00;;
11263;SDS011;5689;48.798;9.070;2022-09-09T14:35:43;0.10;;;0.10;;
11263;SDS011;5689;48.798;9.070;2022-09-09T14:38:12;0.10;;;0.10;;
11263;SDS011;5689;48.798;9.070;2022-09-09T14:40:44;0.10;;;0.10;;
11263;SDS011;5689;48.798;9.070;2022-09-09T14:43:13;0.00;;;0.00;;
11263;SDS011;5689;48.798;9.070;2022-09-09T14:45:41;0.00;;;0.00;;
11263;SDS011;5689;48.798;9.070;2022-09-09T14:48:12;0.00;;;0.00;;
11263;SDS011;5689;48.798;9.070;2022-09-09T14:50:40;0.00;;;0.00;;
11263;SDS011;5689;48.798;9.070;2022-09-09T14:53:09;0.00;;;0.00;;
11263;SDS011;5689;48.798;9.070;2022-09-09T14:55:40;0.00;;;0.00;;
11263;SDS011;5689;48.798;9.070;2022-09-09T14:58:09;0.00;;;0.00;;
11263;SDS011;5689;48.798;9.070;2022-09-09T15:00:37;0.00;;;0.00;;
11263;SDS011;5689;48.798;9.070;2022-09-09T15:03:06;0.00;;;0.00;;
11263;SDS011;5689;48.798;9.070;2022-09-09T15:05:35;0.00;;;0.00;;
11263;SDS011;5689;48.798;9.070;2022-09-09T15:08:04;0.10;;;0.10;;
11263;SDS011;5689;48.798;9.070;2022-09-09T15:10:32;0.00;;;0.00;;
11263;SDS011;5689;48.798;9.070;2022-09-09T15:13:00;0.00;;;0.00;;
11263;SDS011;5689;48.798;9.070;2022-09-09T15:15:28;0.00;;;0.00;;
11263;SDS011;5689;48.798;9.070;2022-09-09T15:17:56;0.00;;;0.00;;
11263;SDS011;5689;48.798;9.070;2022-09-09T15:20:24;0.00;;;0.00;;
11263;SDS011;5689;48.798;9.070;2022-09-09T15:22:53;0.10;;;0.10;;
11263;SDS011;5689;48.798;9.070;2022-09-09T15:25:23;0.10;;;0.10;;
11263;SDS011;5689;48.798;9.070;2022-09-09T15:27:51;0.00;;;0.00;;
11263;SDS011;5689;48.798;9.070;2022-09-09T15:30:19;0.00;;;0.00;;
11263;SDS011;5689;48.798;9.070;2022-09-09T15:32:48;0.10;;;0.10;;
11263;SDS011;5689;48.798;9.070;2022-09-09T15:35:19;0.00;;;0.00;;
11263;SDS011;5689;48.798;9.070;2022-09-09T15:37:47;0.00;;;0.00;;